Tikaboo Peak, Nevada Weather observations

Data are for 10 minute period ending at time listed.
 Day   Time   Solar   Ave.   Ave.  Ave.  Vector  Max.   Baro.   Total    
  of    of     Rad.   Air    Rel.  Wind   Wind   Wind  Press.  Precip.   
Year   Day            Temp.  Hum.  Speed  Dir.   Gust                    
2016   (PST)  Kw/m2    F      %     mph   deg.    mph    mb.     in.     
-------------------------------------------------------------------------
 151   10:20   1.11   64.7    25   10.0    96    17.5   765.2    0.00 
 151   10:30   1.12   64.6    25    8.2    98    20.2   765.2    0.00 
 151   10:40   1.13   64.7    24    7.5   100    15.6   765.1    0.00 
 151   10:50   1.15   64.9    22    7.1    94    16.3   765.1    0.00 
 151   11:00   1.17   64.5    20    8.8    86    20.9   765.1    0.00 
 151   11:10   1.17   65.8    19    7.9    93    17.9   765.0    0.00 
 151   11:20   1.20   66.3    20    5.0    70    11.5   764.9    0.00 
 151   11:30   0.48   66.4    20    8.2    87    23.7   764.8    0.00 
 151   11:40   1.21   64.7    21    8.7    84    18.3   764.8    0.00 
 151   11:50   1.22   68.5    19    3.5    82     8.9   764.8    0.00 
 151   12:00   100.00   70.0    18    3.4    98     8.9   764.7    0.00 
 151   12:10   100.00   66.8    20    6.8    81    20.1   764.6    0.00 
 151   12:20   100.00   67.6    19    8.9    64    17.5   764.7    0.00 
 151   12:30   1.25   70.8    16    5.3   100    14.6   764.5    0.00 
 151   12:40   0.41   68.1    17    4.2    95    12.8   764.4    0.00 
 151   12:50   0.80   65.7    18    7.6    83    15.8   764.4    0.00 
 151   13:00   1.15   69.6    17    2.4    86     9.8   764.5    0.00 
 151   13:10   0.61   71.3    16    2.7    80    10.2   764.2    0.00 
 151   13:20   1.10   72.1    16    2.5    55     7.1   764.2    0.00 
 151   13:30   0.59   72.8    15    1.8   117     6.5   764.1    0.00 
 151   13:40   0.97   70.7    16    2.3   115     6.4   764.1    0.00 
 151   13:50   0.95   71.9    14    5.1    64    13.5   764.0    0.00 
 151   14:00   0.87   71.9    14    5.4    58    12.4   764.0    0.00 
 151   14:10   0.92   71.4    15    6.9    65    14.9   763.9    0.00 
 151   14:20   0.85   72.3    14    7.3    58    17.1   763.8    0.00 
 151   14:30   0.90   72.5    14    2.1    82     6.9   763.8    0.00 
 151   14:40   0.83   74.3    13    3.0    45     9.5   763.5    0.00 
 151   14:50   0.84   74.4    13    2.4   116     9.3   763.5    0.00 
 151   15:00   0.70   75.0    13    1.6   143     7.2   763.5    0.00 
 151   15:10   0.71   73.7    14    1.5   111     5.3   763.4    0.00 
 151   15:20   0.58   72.3    14    1.6   116     5.1   763.4    0.00 
 151   15:30   0.69   73.9    14    1.4   120     5.7   763.4    0.00 
 151   15:40   0.65   74.8    14    1.3    64     7.4   763.4    0.00 
 151   15:50   0.45   73.2    14    1.1    79     6.9   763.3    0.00 
 151   16:00   0.56   72.5    14    1.7    74     9.1   763.4    0.00 
 151   16:10   0.56   73.0    14    4.4    66    13.6   763.2    0.00 
 151   16:20   0.18   71.5    15    3.0    61    12.6   763.2    0.00 
 151   16:30   0.25   68.9    15    7.5    69    17.9   763.2    0.00 
 151   16:40   0.30   69.0    15    4.2    56    11.7   763.3    0.00 
 151   16:50   0.14   68.7    15    8.0    57    15.8   763.3    0.00 
 151   17:00   0.09   67.4    17    6.3    55    11.5   763.3    0.00 
 151   17:10   0.19   66.9    17    3.2    66     7.7   763.2    0.00 
 151   17:20   0.26   67.0    16    2.3    93     6.7   763.2    0.00 
 151   17:30   0.22   67.1    16    3.2    63     9.9   763.2    0.00 
 151   17:40   0.14   67.1    15    4.0    60    14.7   763.2    0.00 
 151   17:50   0.11   66.7    14    5.9    76    14.6   763.2    0.00 
 151   18:00   0.11   66.3    14    5.8    75    13.3   763.2    0.00 
 151   18:10   0.10   66.5    15    8.7    71    17.0   763.2    0.00 
 151   18:20   0.09   66.6    15    9.2    72    17.8   763.2    0.00 
 151   18:30   0.06   66.4    16   10.6    67    17.8   763.2    0.00 
 151   18:40   0.04   66.0    17   13.0    70    21.0   763.2    0.00 
 151   18:50   0.02   65.4    18   12.5    72    19.3   763.2    0.00 
 151   19:00   0.01   64.8    18   11.8    82    18.9   763.2    0.00 
 151   19:10   0.00   62.9    22   10.4   122    15.5   763.3    0.00 
 151   19:20   0.00   61.3    24   15.9   133    22.3   763.2    0.00 
 151   19:30   0.00   61.4    24   13.4   115    19.6   763.3    0.00 
 151   19:40   0.00   61.2    24    8.0   104    13.0   763.5    0.00 
 151   19:50   0.00   61.5    23   12.6   114    15.8   763.5    0.00 
 151   20:00   0.00   61.0    24   13.4   113    18.4   763.5    0.00 
 151   20:10   0.00   60.7    25   13.8   115    19.1   763.5    0.00 
 151   20:20   0.00   60.7    25   14.5   110    21.9   763.7    0.00 
 151   20:30   0.00   60.5    25   12.7   100    18.6   763.8    0.00 
 151   20:40   0.00   61.4    23   16.3    96    22.1   763.8    0.00 
 151   20:50   0.00   61.6    23   13.3    96    20.4   763.8    0.00 
 151   21:00   0.00   61.3    24   11.7   102    17.3   763.9    0.00 
 151   21:10   0.00   60.9    24    9.0   102    14.2   763.9    0.00 
 151   21:20   0.00   61.0    24    8.4    89    13.1   764.0    0.00 
 151   21:30   0.00   61.1    24    9.1    91    16.1   764.0    0.00 
 151   21:40   0.00   61.0    24   10.1    94    15.3   763.9    0.00 
 151   21:50   0.00   61.1    24   10.4    90    16.4   763.9    0.00 
 151   22:00   0.00   61.1    24   10.2    88    14.3   763.8    0.00 
 151   22:10   0.00   61.1    24   11.9    79    17.5   763.8    0.00 
 151   22:20   0.00   60.9    24   11.8    74    16.9   763.8    0.00 
 151   22:30   0.00   59.7    25   15.5    84    25.1   763.8    0.00 
 151   22:40   0.00   58.9    26   19.3    91    27.1   763.6    0.00 
 151   22:50   0.00   58.7    28   24.2    93    31.8   763.5    0.00 
 151   23:00   0.00   58.3    29   23.5    93    32.6   763.3    0.00 
 151   23:10   0.00   57.9    30   25.4    96    37.3   763.3    0.00 
 151   23:20   0.00   57.7    32   25.6    97    33.5   763.3    0.00 
 151   23:30   0.00   57.4    32   23.6    97    32.2   763.3    0.00 
 151   23:40   0.00   57.2    33   23.8    96    34.2   763.3    0.00 
 151   23:50   0.00   57.0    34   24.4    94    31.9   763.2    0.00 
 152    0:00   0.00   56.7    35   25.1    95    32.7   763.1    0.00 
 152    0:10   0.00   56.5    36   24.3    96    33.6   763.2    0.00 
 152    0:20   0.00   56.2    37   24.9    97    34.2   763.2    0.00 
 152    0:30   0.00   55.8    37   24.0    98    32.8   763.2    0.00 
 152    0:40   0.00   55.6    38   23.2    98    31.0   763.3    0.00 
 152    0:50   0.00   55.4    38   23.8    98    30.8   763.2    0.00 
 152    1:00   0.00   55.2    39   22.8    98    30.0   763.0    0.00 
 152    1:10   0.00   55.0    39   22.1    99    31.0   763.1    0.00 
 152    1:20   0.00   54.8    39   21.8    99    30.2   763.2    0.00 
 152    1:30   0.00   55.1    38   21.4   100    30.3   763.2    0.00 
 152    1:40   0.00   55.1    38   20.5    99    27.5   763.3    0.00 
 152    1:50   0.00   55.0    38   19.8    98    26.7   763.4    0.00 
 152    2:00   0.00   54.8    39   19.9   100    26.4   763.2    0.00 
 152    2:10   0.00   54.7    39   19.1   100    23.5   763.2    0.00 
 152    2:20   0.00   54.4    39   19.1    98    25.6   763.3    0.00 
 152    2:30   0.00   54.2    40   17.8    99    24.5   763.3    0.00 
 152    2:40   0.00   54.3    40   19.3    96    26.2   763.2    0.00 
 152    2:50   0.00   54.3    41   18.8    96    23.8   763.3    0.00 
 152    3:00   0.00   54.0    44   20.4    97    26.1   763.2    0.00 
 152    3:10   0.00   54.0    45   21.3    96    26.5   763.2    0.00 
 152    3:20   0.00   53.9    45   22.4    96    29.7   763.2    0.00 
 152    3:30   0.00   53.7    45   21.1    96    27.0   763.2    0.00 
 152    3:40   0.00   53.4    45   21.6    95    27.0   763.2    0.00 
 152    3:50   0.00   53.5    45   22.5    96    27.6   763.2    0.00 
 152    4:00   0.00   53.3    46   22.8    96    30.4   763.1    0.00 
 152    4:10   0.00   53.1    46   22.9    95    30.4   763.1    0.00 
 152    4:20   0.00   53.0    46   23.3    96    30.5   763.1    0.00 
 152    4:30   0.01   52.9    47   22.9    96    29.8   763.2    0.00 
 152    4:40   0.04   53.0    46   23.0    95    28.6   763.3    0.00 
 152    4:50   0.06   53.0    46   21.8    97    28.4   763.3    0.00 
 152    5:00   0.10   53.0    45   20.4    98    26.2   763.2    0.00 
 152    5:10   0.14   53.2    45   20.6    97    26.8   763.3    0.00 
 152    5:20   0.18   53.5    44   20.9    97    27.4   763.5    0.00 
 152    5:30   0.21   54.0    44   17.8    98    23.3   763.5    0.00 
 152    5:40   0.24   54.5    43   17.5    99    22.6   763.7    0.00 
 152    5:50   0.27   54.6    43   16.8    97    21.9   763.8    0.00 
 152    6:00   0.31   54.6    43   17.2    99    21.9   763.7    0.00 
 152    6:10   0.38   54.8    42   17.1    99    22.6   763.8    0.00 
 152    6:20   0.36   54.6    42   18.2   100    21.5   763.9    0.00 
 152    6:30   0.41   54.6    42   16.5   102    21.6   763.9    0.00 
 152    6:40   0.39   55.2    42   16.6   101    21.4   764.0    0.00 
 152    6:50   0.45   55.5    42   16.0   100    20.8   764.0    0.00 
 152    7:00   0.58   55.6    42   18.0    99    23.0   763.9    0.00 
 152    7:10   0.62   56.3    40   17.8    98    21.0   764.1    0.00 
 152    7:20   0.65   56.7    39   15.8    99    21.1   764.2    0.00 
 152    7:30   0.68   57.5    39   14.7   101    20.5   764.2    0.00 
 152    7:40   0.71   58.7    37   13.9   101    19.4   764.4    0.00 
 152    7:50   0.73   59.2    36   13.9   100    20.9   764.4    0.00 
 152    8:00   0.79   59.4    35   15.0   100    20.8   764.4    0.00 
 152    8:10   0.82   59.7    34   14.2   102    20.2   764.5    0.00 
 152    8:20   0.85   59.6    34   14.1   102    20.7   764.5    0.00 
 152    8:30   0.88   61.3    32   11.5   101    19.1   764.5    0.00 
 152    8:40   0.91   60.7    32   14.1    99    22.1   764.5    0.00 
 152    8:50   0.94   60.5    32   14.6    98    20.8   764.5    0.00 
 152    9:00   0.96   60.8    31   13.3    95    20.8   764.4    0.00 
 152    9:10   0.99   60.5    31   10.6    88    21.0   764.4    0.00 
 152    9:20   1.00   60.2    31   12.9    90    21.3   764.4    0.00 
 152    9:30   1.03   60.6    30   12.3    92    19.4   764.5    0.00 
 152    9:40   1.05   61.1    30    9.2    87    18.6   764.6    0.00 
 152    9:50   1.06   61.4    28    7.5    78    17.0   764.6    0.00 
 152   10:00   1.08   62.9    27    5.5   100    15.0   764.6    0.00 
 152   10:10   1.09   63.6    25    5.9    84    18.5   764.6    0.00 

Return to Tikaboo Peak graphs page.


Western Regional Climate Center,wrcc@dri.edu